Time;durP1;ratioP1;P1;durP2;ratioP2;P2;SDS_P1;SDS_P2;PMS_P1;PMS_P2;Temp;Humidity;BMP_temperature;BMP_pressure;BME280_temperature;BME280_humidity;BME280_pressure;Samples;Min_cycle;Max_cycle;Signal;HPM_P1;HPM_P2
2023/01/07 00:01:14;;;;;;;56.80;27.98;;;;;;;;;;5042317;28;21221;-86
2023/01/07 00:03:40;;;;;;;55.97;29.08;;;;;;;;;;5040723;28;20074;-85
2023/01/07 00:06:09;;;;;;;56.45;28.95;;;;;;;;;;5019696;28;21092;-85
2023/01/07 00:08:37;;;;;;;57.80;30.02;;;;;;;;;;5014532;28;20041;-86
2023/01/07 00:11:04;;;;;;;61.40;29.98;;;;;;;;;;5025535;28;20056;-85
2023/01/07 00:13:30;;;;;;;69.50;33.20;;;;;;;;;;5015423;28;20034;-85
2023/01/07 00:15:58;;;;;;;69.57;34.25;;;;;;;;;;5034441;28;20128;-85
2023/01/07 00:18:24;;;;;;;65.70;31.80;;;;;;;;;;5017392;28;20044;-85
2023/01/07 00:20:50;;;;;;;71.13;33.83;;;;;;;;;;5020713;28;20081;-85
2023/01/07 00:23:16;;;;;;;65.13;32.45;;;;;;;;;;5033698;28;20285;-86
2023/01/07 00:25:42;;;;;;;68.13;34.42;;;;;;;;;;5037897;28;20098;-86
2023/01/07 00:28:08;;;;;;;71.47;34.47;;;;;;;;;;5038025;28;20051;-86
2023/01/07 00:30:34;;;;;;;69.32;33.28;;;;;;;;;;5024285;28;20036;-84
2023/01/07 00:33:04;;;;;;;74.07;37.28;;;;;;;;;;5024800;28;20051;-85
2023/01/07 00:35:37;;;;;;;72.97;35.33;;;;;;;;;;5041245;28;20110;-85
2023/01/07 00:38:04;;;;;;;73.18;35.63;;;;;;;;;;5041731;28;20798;-85
2023/01/07 00:40:31;;;;;;;76.65;36.95;;;;;;;;;;5028045;28;20047;-85
2023/01/07 00:43:00;;;;;;;76.60;37.00;;;;;;;;;;5027669;28;20052;-85
2023/01/07 00:45:28;;;;;;;82.68;36.47;;;;;;;;;;5058034;28;20036;-86
2023/01/07 00:47:55;;;;;;;85.35;39.70;;;;;;;;;;5040570;28;20125;-85
2023/01/07 00:50:22;;;;;;;83.90;37.20;;;;;;;;;;5041062;28;20499;-84
2023/01/07 00:52:48;;;;;;;80.35;38.22;;;;;;;;;;5038929;28;20050;-84
2023/01/07 00:55:14;;;;;;;85.20;38.53;;;;;;;;;;5038945;28;20117;-85
2023/01/07 00:57:41;;;;;;;83.40;37.47;;;;;;;;;;5005225;28;20045;-85
2023/01/07 01:00:08;;;;;;;77.65;37.38;;;;;;;;;;5042714;28;20052;-86
2023/01/07 01:02:36;;;;;;;84.05;38.60;;;;;;;;;;5040284;28;20180;-85
2023/01/07 01:05:02;;;;;;;77.65;39.03;;;;;;;;;;5037628;28;20558;-85
2023/01/07 01:07:28;;;;;;;73.85;36.78;;;;;;;;;;5040538;28;20059;-85
2023/01/07 01:09:54;;;;;;;69.65;35.67;;;;;;;;;;5059381;28;20155;-86
2023/01/07 01:12:20;;;;;;;84.70;37.30;;;;;;;;;;5024295;28;20040;-85
2023/01/07 01:14:46;;;;;;;77.53;35.22;;;;;;;;;;5038251;28;20040;-85
2023/01/07 01:17:12;;;;;;;81.43;35.90;;;;;;;;;;5055968;28;20040;-85
2023/01/07 01:19:39;;;;;;;86.78;39.13;;;;;;;;;;5038090;28;20044;-86
2023/01/07 01:22:05;;;;;;;88.95;36.00;;;;;;;;;;5017246;28;20495;-83
2023/01/07 01:24:31;;;;;;;91.40;40.78;;;;;;;;;;5024704;28;20091;-84
2023/01/07 01:26:57;;;;;;;87.57;37.38;;;;;;;;;;5023434;28;20040;-85
2023/01/07 01:29:23;;;;;;;93.90;38.08;;;;;;;;;;5022423;28;20075;-84
2023/01/07 01:31:49;;;;;;;89.70;37.85;;;;;;;;;;5024625;28;21693;-85
2023/01/07 01:34:15;;;;;;;92.55;37.28;;;;;;;;;;5027344;28;20425;-85
2023/01/07 01:36:41;;;;;;;82.95;35.60;;;;;;;;;;5070294;28;20074;-85
2023/01/07 01:39:07;;;;;;;89.70;37.17;;;;;;;;;;5082981;28;20108;-84
2023/01/07 01:41:33;;;;;;;90.82;38.67;;;;;;;;;;5068745;28;20040;-85
2023/01/07 01:44:00;;;;;;;96.05;37.58;;;;;;;;;;5083265;28;20040;-85
2023/01/07 01:46:41;;;;;;;94.80;38.90;;;;;;;;;;5064366;28;20108;-85
2023/01/07 01:49:13;;;;;;;91.97;35.75;;;;;;;;;;5042462;28;20048;-84
2023/01/07 01:51:41;;;;;;;92.10;35.45;;;;;;;;;;5048886;28;20167;-85
2023/01/07 01:54:09;;;;;;;92.18;37.40;;;;;;;;;;5041684;28;20512;-85
2023/01/07 01:56:37;;;;;;;82.38;33.38;;;;;;;;;;5054887;28;20028;-85
2023/01/07 01:59:09;;;;;;;79.28;32.50;;;;;;;;;;5042096;28;20529;-85
2023/01/07 02:01:36;;;;;;;81.68;32.92;;;;;;;;;;5052215;28;20163;-85
2023/01/07 02:04:13;;;;;;;76.63;35.42;;;;;;;;;;5036362;28;20526;-84
2023/01/07 02:06:42;;;;;;;77.97;32.72;;;;;;;;;;5054460;28;20561;-85
2023/01/07 02:09:10;;;;;;;81.63;34.38;;;;;;;;;;5038926;28;20559;-84
2023/01/07 02:11:37;;;;;;;72.35;30.80;;;;;;;;;;5060548;28;20050;-85
2023/01/07 02:14:21;;;;;;;72.72;30.58;;;;;;;;;;5040174;28;20635;-85
2023/01/07 02:17:14;;;;;;;63.35;30.95;;;;;;;;;;5039373;28;20151;-85
2023/01/07 02:19:59;;;;;;;72.97;32.10;;;;;;;;;;5034283;28;20101;-84
2023/01/07 02:22:25;;;;;;;79.20;31.67;;;;;;;;;;5054897;28;20493;-85
2023/01/07 02:25:10;;;;;;;75.47;29.65;;;;;;;;;;5044506;28;21073;-85
2023/01/07 02:27:55;;;;;;;79.22;32.58;;;;;;;;;;5042212;28;20078;-84
2023/01/07 02:30:39;;;;;;;78.07;33.33;;;;;;;;;;5053702;28;20148;-85
2023/01/07 02:33:09;;;;;;;74.72;31.60;;;;;;;;;;5061142;28;20040;-84
2023/01/07 02:35:53;;;;;;;78.00;32.22;;;;;;;;;;5052879;28;20051;-84
2023/01/07 02:38:39;;;;;;;63.35;29.25;;;;;;;;;;5039688;28;20075;-85
2023/01/07 02:41:11;;;;;;;64.15;29.17;;;;;;;;;;5038531;28;20040;-85
2023/01/07 02:43:43;;;;;;;69.22;29.63;;;;;;;;;;5040427;28;20040;-85
2023/01/07 02:46:33;;;;;;;48.47;25.30;;;;;;;;;;5040957;28;20043;-85
2023/01/07 02:48:59;;;;;;;74.25;32.47;;;;;;;;;;5044214;28;20047;-85
2023/01/07 02:51:39;;;;;;;45.15;24.17;;;;;;;;;;5069575;28;20040;-85
2023/01/07 02:54:07;;;;;;;64.22;32.67;;;;;;;;;;5036080;28;20047;-85
2023/01/07 02:56:52;;;;;;;68.15;30.58;;;;;;;;;;5067749;28;20094;-85
2023/01/07 02:59:33;;;;;;;60.47;28.88;;;;;;;;;;5055036;28;20044;-86
2023/01/07 03:02:18;;;;;;;70.18;32.40;;;;;;;;;;5069107;28;20052;-85
2023/01/07 03:05:06;;;;;;;75.53;32.55;;;;;;;;;;5049088;28;20052;-85
2023/01/07 03:07:46;;;;;;;63.38;30.58;;;;;;;;;;5058918;28;20036;-85
2023/01/07 03:10:26;;;;;;;70.97;33.05;;;;;;;;;;5047044;28;21843;-86
2023/01/07 03:12:57;;;;;;;72.90;34.10;;;;;;;;;;5059403;28;20047;-86
2023/01/07 03:15:29;;;;;;;67.60;32.33;;;;;;;;;;5060364;28;20365;-86
2023/01/07 03:18:04;;;;;;;66.78;32.65;;;;;;;;;;5055382;28;20036;-86
2023/01/07 03:20:32;;;;;;;62.83;32.75;;;;;;;;;;5067991;28;20089;-86
2023/01/07 03:22:58;;;;;;;60.20;33.58;;;;;;;;;;5075369;28;20055;-86
2023/01/07 03:25:26;;;;;;;60.08;34.00;;;;;;;;;;5089548;28;20052;-86
2023/01/07 03:27:53;;;;;;;64.43;33.25;;;;;;;;;;5074424;28;20835;-86
2023/01/07 03:30:19;;;;;;;54.95;32.05;;;;;;;;;;5060257;28;20048;-85
2023/01/07 03:32:48;;;;;;;56.38;32.55;;;;;;;;;;5076795;28;20542;-84
2023/01/07 03:35:15;;;;;;;53.10;31.50;;;;;;;;;;5040003;28;20714;-85
2023/01/07 03:37:42;;;;;;;57.05;31.80;;;;;;;;;;5055173;28;20046;-85
2023/01/07 03:40:09;;;;;;;50.85;30.23;;;;;;;;;;5040372;28;20249;-85
2023/01/07 03:42:38;;;;;;;52.42;30.98;;;;;;;;;;5039472;28;20044;-86
2023/01/07 03:45:07;;;;;;;54.10;32.47;;;;;;;;;;5041589;28;20035;-87
2023/01/07 03:47:34;;;;;;;52.90;31.90;;;;;;;;;;5057077;28;21497;-86
2023/01/07 03:50:00;;;;;;;55.95;37.03;;;;;;;;;;5054719;28;20052;-86
2023/01/07 03:52:27;;;;;;;53.35;34.42;;;;;;;;;;5058757;28;20080;-86
2023/01/07 03:54:53;;;;;;;48.90;33.72;;;;;;;;;;5060627;28;20029;-86
2023/01/07 03:57:19;;;;;;;51.63;34.33;;;;;;;;;;5075893;28;20036;-86
2023/01/07 03:59:45;;;;;;;50.05;32.42;;;;;;;;;;5059767;28;20047;-86
2023/01/07 04:02:11;;;;;;;48.72;32.75;;;;;;;;;;5064214;28;20590;-86
2023/01/07 04:04:37;;;;;;;48.97;31.13;;;;;;;;;;5076310;28;20036;-86
2023/01/07 04:07:03;;;;;;;44.72;33.80;;;;;;;;;;5042784;28;20046;-86
2023/01/07 04:09:29;;;;;;;42.60;29.92;;;;;;;;;;5043074;28;20162;-86
2023/01/07 04:11:55;;;;;;;41.65;31.13;;;;;;;;;;5046214;28;20040;-86
2023/01/07 04:14:21;;;;;;;47.13;33.00;;;;;;;;;;5041533;28;20049;-86
2023/01/07 04:16:50;;;;;;;45.20;30.38;;;;;;;;;;5042409;28;20059;-85
2023/01/07 04:19:16;;;;;;;39.78;28.80;;;;;;;;;;5051634;28;20097;-84
2023/01/07 04:21:43;;;;;;;39.08;30.30;;;;;;;;;;5067119;28;20328;-85
2023/01/07 04:24:09;;;;;;;40.40;31.48;;;;;;;;;;5053926;28;20131;-85
2023/01/07 04:26:35;;;;;;;40.05;29.60;;;;;;;;;;5046572;28;20044;-86
2023/01/07 04:29:01;;;;;;;48.08;30.25;;;;;;;;;;5045651;28;20162;-85
2023/01/07 04:31:27;;;;;;;34.90;26.85;;;;;;;;;;5040302;28;20044;-85
2023/01/07 04:33:53;;;;;;;35.33;27.65;;;;;;;;;;5054999;28;20047;-85
2023/01/07 04:36:20;;;;;;;36.38;26.25;;;;;;;;;;5055288;28;20045;-85
2023/01/07 04:38:46;;;;;;;34.03;29.15;;;;;;;;;;5047228;28;20125;-85
2023/01/07 04:41:12;;;;;;;32.22;27.52;;;;;;;;;;5055749;28;20089;-85
2023/01/07 04:43:38;;;;;;;33.17;28.33;;;;;;;;;;5039308;28;20570;-85
2023/01/07 04:46:04;;;;;;;31.58;26.52;;;;;;;;;;5012190;28;20056;-85
2023/01/07 04:48:30;;;;;;;29.15;23.77;;;;;;;;;;5042923;28;20521;-85
2023/01/07 04:50:57;;;;;;;32.35;25.92;;;;;;;;;;5026660;28;20041;-85
2023/01/07 04:53:23;;;;;;;28.75;22.80;;;;;;;;;;5073195;28;20166;-85
2023/01/07 04:55:49;;;;;;;29.58;25.58;;;;;;;;;;5044938;28;20078;-85
2023/01/07 04:58:15;;;;;;;29.60;21.88;;;;;;;;;;5039717;28;20163;-85
2023/01/07 05:00:41;;;;;;;26.70;21.85;;;;;;;;;;5059296;28;20082;-85
2023/01/07 05:03:08;;;;;;;33.83;24.90;;;;;;;;;;5022815;28;20032;-85
2023/01/07 05:05:34;;;;;;;29.83;25.50;;;;;;;;;;5023428;28;20043;-85
2023/01/07 05:08:00;;;;;;;27.73;22.67;;;;;;;;;;5045646;28;20048;-85
2023/01/07 05:10:26;;;;;;;29.48;24.38;;;;;;;;;;5068638;28;20105;-85
2023/01/07 05:12:52;;;;;;;26.98;24.10;;;;;;;;;;5066581;28;20048;-85
2023/01/07 05:15:18;;;;;;;35.05;24.63;;;;;;;;;;5063882;28;20036;-85
2023/01/07 05:17:44;;;;;;;32.20;24.83;;;;;;;;;;5071044;28;20071;-85
2023/01/07 05:20:12;;;;;;;32.13;25.15;;;;;;;;;;5049224;28;20044;-85
2023/01/07 05:22:38;;;;;;;29.40;23.35;;;;;;;;;;5041082;28;20044;-85
2023/01/07 05:25:04;;;;;;;28.95;24.65;;;;;;;;;;5055610;28;20047;-85
2023/01/07 05:27:31;;;;;;;28.77;23.95;;;;;;;;;;5036474;28;20046;-85
2023/01/07 05:29:57;;;;;;;28.65;21.65;;;;;;;;;;5055612;28;20388;-85
2023/01/07 05:32:23;;;;;;;32.97;26.90;;;;;;;;;;5042756;28;20035;-86
2023/01/07 05:34:49;;;;;;;28.80;22.05;;;;;;;;;;5060682;28;20048;-86
2023/01/07 05:37:15;;;;;;;28.55;24.05;;;;;;;;;;5055688;28;20179;-84
2023/01/07 05:39:41;;;;;;;31.73;22.67;;;;;;;;;;5058313;28;20566;-87
2023/01/07 05:42:07;;;;;;;28.75;21.98;;;;;;;;;;5057277;28;20040;-86
2023/01/07 05:44:33;;;;;;;28.45;20.25;;;;;;;;;;5042804;28;21979;-86
2023/01/07 05:46:59;;;;;;;26.33;18.90;;;;;;;;;;5047511;28;20155;-86
2023/01/07 05:49:25;;;;;;;27.40;20.48;;;;;;;;;;5023858;28;20044;-86
2023/01/07 05:51:51;;;;;;;32.25;22.02;;;;;;;;;;5046957;28;20149;-86
2023/01/07 05:54:20;;;;;;;26.75;18.98;;;;;;;;;;5057966;28;20040;-87
2023/01/07 05:56:46;;;;;;;24.52;17.52;;;;;;;;;;5040598;28;20043;-88
2023/01/07 05:59:12;;;;;;;26.50;21.33;;;;;;;;;;5053273;28;20043;-86
2023/01/07 06:01:38;;;;;;;25.33;18.58;;;;;;;;;;5070650;28;20060;-85
2023/01/07 06:04:04;;;;;;;22.50;18.40;;;;;;;;;;5047361;28;20402;-86
2023/01/07 06:06:30;;;;;;;24.48;19.80;;;;;;;;;;5039266;28;20094;-84
2023/01/07 06:08:56;;;;;;;29.98;19.17;;;;;;;;;;5050247;28;20176;-85
2023/01/07 06:11:23;;;;;;;23.00;19.52;;;;;;;;;;5045319;28;20047;-87
2023/01/07 06:13:49;;;;;;;21.23;15.10;;;;;;;;;;5049525;28;20063;-85
2023/01/07 06:16:15;;;;;;;20.08;16.52;;;;;;;;;;5059342;28;20051;-87
2023/01/07 06:18:41;;;;;;;25.63;18.45;;;;;;;;;;5058651;28;20028;-87
2023/01/07 06:21:07;;;;;;;20.73;16.98;;;;;;;;;;5061284;28;20549;-87
2023/01/07 06:23:33;;;;;;;24.42;17.02;;;;;;;;;;5075220;28;20046;-87
2023/01/07 06:25:59;;;;;;;20.92;17.85;;;;;;;;;;5045917;28;20040;-87
2023/01/07 06:28:25;;;;;;;23.30;17.80;;;;;;;;;;5076122;28;20036;-88
2023/01/07 06:30:51;;;;;;;19.48;16.42;;;;;;;;;;5075812;28;20110;-87
2023/01/07 06:33:17;;;;;;;24.23;17.42;;;;;;;;;;5056566;28;20200;-86
2023/01/07 06:35:44;;;;;;;18.27;15.20;;;;;;;;;;5053320;28;20051;-87
2023/01/07 06:38:10;;;;;;;21.38;17.08;;;;;;;;;;5060483;28;20480;-86
2023/01/07 06:40:36;;;;;;;19.77;16.25;;;;;;;;;;5042457;28;20038;-88
2023/01/07 06:43:02;;;;;;;22.02;16.67;;;;;;;;;;5024798;28;20036;-87
2023/01/07 06:45:29;;;;;;;20.08;15.77;;;;;;;;;;5031778;28;20067;-87
2023/01/07 06:47:57;;;;;;;25.85;15.65;;;;;;;;;;5060617;28;20562;-87
2023/01/07 06:50:23;;;;;;;19.25;15.90;;;;;;;;;;5087895;28;20695;-88
2023/01/07 06:52:50;;;;;;;22.50;13.68;;;;;;;;;;5071847;28;20028;-88
2023/01/07 06:55:16;;;;;;;21.33;15.02;;;;;;;;;;5086309;28;20071;-88
2023/01/07 06:57:42;;;;;;;17.27;13.30;;;;;;;;;;5065648;28;21465;-87
2023/01/07 07:00:08;;;;;;;19.23;13.85;;;;;;;;;;5058058;28;20403;-88
2023/01/07 07:02:34;;;;;;;18.02;15.32;;;;;;;;;;5042971;28;20055;-87
2023/01/07 07:05:01;;;;;;;16.02;14.38;;;;;;;;;;5043717;28;20077;-88
2023/01/07 07:07:27;;;;;;;19.45;13.95;;;;;;;;;;5041213;28;20098;-88
2023/01/07 07:10:05;;;;;;;18.27;14.07;;;;;;;;;;5045787;28;22100;-89
2023/01/07 07:12:32;;;;;;;16.55;13.38;;;;;;;;;;5047098;28;20036;-89
2023/01/07 07:14:58;;;;;;;18.45;13.40;;;;;;;;;;5042731;28;21043;-88
2023/01/07 07:17:24;;;;;;;14.68;12.60;;;;;;;;;;5042819;28;20052;-89
2023/01/07 07:19:50;;;;;;;15.38;11.38;;;;;;;;;;5065780;28;20105;-89
2023/01/07 07:22:16;;;;;;;16.92;12.70;;;;;;;;;;5052637;28;20476;-87
2023/01/07 07:24:43;;;;;;;15.25;12.63;;;;;;;;;;5047641;28;20063;-88
2023/01/07 07:27:09;;;;;;;14.88;11.63;;;;;;;;;;5064163;28;20095;-87
2023/01/07 07:29:35;;;;;;;17.80;13.57;;;;;;;;;;5068607;28;20514;-88
2023/01/07 07:32:02;;;;;;;18.55;13.38;;;;;;;;;;5063815;28;20048;-87
2023/01/07 07:34:28;;;;;;;14.55;11.15;;;;;;;;;;5065517;28;20048;-86
2023/01/07 07:36:54;;;;;;;17.30;12.85;;;;;;;;;;5038676;28;20072;-86
2023/01/07 07:39:20;;;;;;;13.75;10.05;;;;;;;;;;5047922;28;20492;-88
2023/01/07 07:41:46;;;;;;;16.95;13.13;;;;;;;;;;5060868;28;20044;-87
2023/01/07 07:44:12;;;;;;;14.45;10.45;;;;;;;;;;5048914;28;20510;-87
2023/01/07 07:46:39;;;;;;;16.90;11.73;;;;;;;;;;5036393;28;20036;-80
2023/01/07 07:49:05;;;;;;;14.70;12.98;;;;;;;;;;5046383;28;20749;-80
2023/01/07 07:51:31;;;;;;;16.80;11.95;;;;;;;;;;5038722;28;20567;-80
2023/01/07 07:53:57;;;;;;;12.55;10.95;;;;;;;;;;5037273;28;20041;-80
2023/01/07 07:56:23;;;;;;;18.42;11.63;;;;;;;;;;5039216;28;20043;-81
2023/01/07 07:58:50;;;;;;;13.32;9.15;;;;;;;;;;5048728;28;20044;-81
2023/01/07 08:01:16;;;;;;;14.18;11.43;;;;;;;;;;5032906;28;20141;-81
2023/01/07 08:03:42;;;;;;;12.07;10.88;;;;;;;;;;5032332;28;20075;-81
2023/01/07 08:06:09;;;;;;;15.55;10.93;;;;;;;;;;5044165;28;20048;-81
2023/01/07 08:08:35;;;;;;;15.00;12.27;;;;;;;;;;5034638;28;22600;-80
2023/01/07 08:11:02;;;;;;;14.45;11.23;;;;;;;;;;5039814;28;20075;-80
2023/01/07 08:13:29;;;;;;;12.95;11.30;;;;;;;;;;5055336;28;20052;-80
2023/01/07 08:15:56;;;;;;;15.02;11.00;;;;;;;;;;5044034;28;20518;-80
2023/01/07 08:18:22;;;;;;;11.60;9.88;;;;;;;;;;5039635;28;20036;-80
2023/01/07 08:20:49;;;;;;;12.13;10.82;;;;;;;;;;5037401;28;20044;-80
2023/01/07 08:23:15;;;;;;;14.57;11.32;;;;;;;;;;5058037;28;20353;-81
2023/01/07 08:25:41;;;;;;;12.65;10.27;;;;;;;;;;5059347;28;20054;-81
2023/01/07 08:28:08;;;;;;;13.45;10.52;;;;;;;;;;5038784;28;20046;-81
2023/01/07 08:30:34;;;;;;;12.30;10.45;;;;;;;;;;5058213;28;21041;-80
2023/01/07 08:33:00;;;;;;;11.90;10.30;;;;;;;;;;5081350;28;20036;-79
2023/01/07 08:35:29;;;;;;;12.63;10.20;;;;;;;;;;5041468;28;20647;-79
2023/01/07 08:38:03;;;;;;;12.77;10.65;;;;;;;;;;5043922;28;20051;-80
2023/01/07 08:40:29;;;;;;;11.80;10.57;;;;;;;;;;5060797;28;20472;-79
2023/01/07 08:42:57;;;;;;;13.45;10.60;;;;;;;;;;5042071;28;20055;-80
2023/01/07 08:45:23;;;;;;;12.18;10.10;;;;;;;;;;5058851;28;20910;-80
2023/01/07 08:47:50;;;;;;;11.35;10.05;;;;;;;;;;5045659;28;20064;-79
2023/01/07 08:50:16;;;;;;;13.98;9.80;;;;;;;;;;5042687;28;20476;-79
2023/01/07 08:52:45;;;;;;;12.77;9.30;;;;;;;;;;5057928;28;20116;-79
2023/01/07 08:55:11;;;;;;;10.75;9.68;;;;;;;;;;5058818;28;20082;-79
2023/01/07 08:57:37;;;;;;;11.95;9.38;;;;;;;;;;5048981;28;20396;-80
2023/01/07 09:00:06;;;;;;;10.02;8.70;;;;;;;;;;5055155;28;20039;-81
2023/01/07 09:02:32;;;;;;;10.82;7.97;;;;;;;;;;5058317;28;20072;-79
2023/01/07 09:04:59;;;;;;;12.57;8.68;;;;;;;;;;5044004;28;20113;-79
2023/01/07 09:07:25;;;;;;;12.00;7.85;;;;;;;;;;5055689;28;20108;-79
2023/01/07 09:09:51;;;;;;;9.90;8.52;;;;;;;;;;5026712;28;20055;-77
2023/01/07 09:12:17;;;;;;;9.88;7.28;;;;;;;;;;5030528;28;20087;-77
2023/01/07 09:14:43;;;;;;;12.07;8.15;;;;;;;;;;5046573;28;20191;-77
2023/01/07 09:17:11;;;;;;;7.97;6.97;;;;;;;;;;5057970;28;20112;-78
2023/01/07 09:19:37;;;;;;;7.28;6.57;;;;;;;;;;5057336;28;20202;-78
2023/01/07 09:22:03;;;;;;;10.20;7.07;;;;;;;;;;5057769;28;20090;-79
2023/01/07 09:24:29;;;;;;;9.50;7.10;;;;;;;;;;5043337;28;20139;-78
2023/01/07 09:26:55;;;;;;;9.43;7.40;;;;;;;;;;5056492;28;21654;-79
2023/01/07 09:29:21;;;;;;;14.50;6.88;;;;;;;;;;5047824;28;20498;-79
2023/01/07 09:31:47;;;;;;;7.72;6.82;;;;;;;;;;5053296;28;20048;-80
2023/01/07 09:34:13;;;;;;;9.25;6.32;;;;;;;;;;5038410;28;20075;-79
2023/01/07 09:36:39;;;;;;;10.10;6.90;;;;;;;;;;5045291;28;20097;-79
2023/01/07 09:39:06;;;;;;;9.95;6.90;;;;;;;;;;5058810;28;20081;-79
2023/01/07 09:41:44;;;;;;;7.85;7.05;;;;;;;;;;5051184;28;20046;-79
2023/01/07 09:44:30;;;;;;;8.35;6.85;;;;;;;;;;5045347;28;20055;-79
2023/01/07 09:46:57;;;;;;;8.25;6.82;;;;;;;;;;5055555;28;21694;-79
2023/01/07 09:49:25;;;;;;;8.80;6.68;;;;;;;;;;5041547;28;20420;-80
2023/01/07 09:51:56;;;;;;;7.97;6.78;;;;;;;;;;5059026;28;20047;-80
2023/01/07 09:54:30;;;;;;;9.85;7.03;;;;;;;;;;5057246;28;20094;-80
2023/01/07 09:56:56;;;;;;;6.65;5.93;;;;;;;;;;5040750;28;20048;-80
2023/01/07 09:59:22;;;;;;;9.43;5.97;;;;;;;;;;5039050;28;20036;-80
2023/01/07 10:01:48;;;;;;;6.72;6.03;;;;;;;;;;5031083;28;20055;-81
2023/01/07 10:04:33;;;;;;;9.50;5.85;;;;;;;;;;5067627;28;20082;-80
2023/01/07 10:07:18;;;;;;;7.22;5.85;;;;;;;;;;5065126;28;20060;-79
2023/01/07 10:09:56;;;;;;;5.43;4.82;;;;;;;;;;5085829;28;20705;-80
2023/01/07 10:12:34;;;;;;;6.75;5.47;;;;;;;;;;5065811;28;20144;-79
2023/01/07 10:15:00;;;;;;;7.35;6.25;;;;;;;;;;5056319;28;20450;-79
2023/01/07 10:17:46;;;;;;;6.47;5.20;;;;;;;;;;5038152;28;20101;-80
2023/01/07 10:20:31;;;;;;;6.60;5.03;;;;;;;;;;5048309;28;20454;-79
2023/01/07 10:23:03;;;;;;;9.60;5.30;;;;;;;;;;5043312;28;20071;-80
2023/01/07 10:25:32;;;;;;;6.10;4.60;;;;;;;;;;5040423;28;21221;-79
2023/01/07 10:28:02;;;;;;;5.70;4.93;;;;;;;;;;5037638;28;20503;-79
2023/01/07 10:30:30;;;;;;;5.30;4.80;;;;;;;;;;5040318;28;20048;-80
2023/01/07 10:32:59;;;;;;;6.47;4.95;;;;;;;;;;5061650;28;20070;-80
2023/01/07 10:35:28;;;;;;;5.47;4.18;;;;;;;;;;5039328;28;20499;-80
2023/01/07 10:37:56;;;;;;;6.72;4.57;;;;;;;;;;5053537;28;21698;-82
2023/01/07 10:40:27;;;;;;;5.40;4.47;;;;;;;;;;5035172;28;20040;-80
2023/01/07 10:42:56;;;;;;;8.10;4.63;;;;;;;;;;5051769;28;20087;-80
2023/01/07 10:45:40;;;;;;;6.72;4.20;;;;;;;;;;5048018;28;20040;-81
2023/01/07 10:48:06;;;;;;;;;;;;;;;;;;5060595;28;20043;-81
2023/01/07 10:50:48;;;;;;;11.95;3.95;;;;;;;;;;5048462;28;20686;-82
2023/01/07 10:53:25;;;;;;;5.38;4.00;;;;;;;;;;5044094;28;20063;-82
2023/01/07 10:55:56;;;;;;;4.15;3.65;;;;;;;;;;5042735;28;20052;-81
2023/01/07 10:58:22;;;;;;;3.92;3.53;;;;;;;;;;5058802;28;20041;-80
2023/01/07 11:00:49;;;;;;;5.32;3.78;;;;;;;;;;5024223;28;20059;-82
2023/01/07 11:03:17;;;;;;;5.38;3.78;;;;;;;;;;5060308;28;20048;-82
2023/01/07 11:05:45;;;;;;;5.13;3.30;;;;;;;;;;5043210;28;20039;-82
2023/01/07 11:08:15;;;;;;;4.90;3.28;;;;;;;;;;5040535;28;20675;-81
2023/01/07 11:10:41;;;;;;;3.53;3.20;;;;;;;;;;5043180;28;20048;-82
2023/01/07 11:13:15;;;;;;;3.38;3.08;;;;;;;;;;5021599;28;20055;-82
2023/01/07 11:15:56;;;;;;;4.70;3.53;;;;;;;;;;5027107;28;20048;-82
2023/01/07 11:18:25;;;;;;;4.30;3.13;;;;;;;;;;5051478;28;20441;-82
2023/01/07 11:20:56;;;;;;;4.35;3.00;;;;;;;;;;5049256;28;20160;-82
2023/01/07 11:23:31;;;;;;;5.30;3.10;;;;;;;;;;5052849;28;20460;-82
2023/01/07 11:26:15;;;;;;;4.57;3.05;;;;;;;;;;5052302;28;22340;-82
2023/01/07 11:28:46;;;;;;;3.37;3.03;;;;;;;;;;5036158;28;20139;-80
2023/01/07 11:31:12;;;;;;;4.20;3.08;;;;;;;;;;5051691;28;21903;-79
2023/01/07 11:33:40;;;;;;;3.28;2.97;;;;;;;;;;5047757;28;20052;-81
2023/01/07 11:36:07;;;;;;;2.70;2.50;;;;;;;;;;5051753;28;21752;-79
2023/01/07 11:38:38;;;;;;;3.67;3.13;;;;;;;;;;5050547;28;20293;-80
2023/01/07 11:41:05;;;;;;;3.13;2.83;;;;;;;;;;5052897;28;20077;-80
2023/01/07 11:43:38;;;;;;;6.85;2.85;;;;;;;;;;5063646;28;20043;-79
2023/01/07 11:46:06;;;;;;;3.20;2.85;;;;;;;;;;5064520;28;20047;-76
2023/01/07 11:48:33;;;;;;;4.38;2.70;;;;;;;;;;5074260;28;20068;-77
2023/01/07 11:51:01;;;;;;;4.35;2.88;;;;;;;;;;5059944;28;20039;-77
2023/01/07 11:53:46;;;;;;;7.82;3.08;;;;;;;;;;5054765;28;20052;-77
2023/01/07 11:56:13;;;;;;;4.43;2.58;;;;;;;;;;5053872;28;20582;-76
2023/01/07 11:58:41;;;;;;;2.38;2.10;;;;;;;;;;5055421;28;20040;-77
2023/01/07 12:01:07;;;;;;;4.22;2.53;;;;;;;;;;5037875;28;20139;-77
2023/01/07 12:03:34;;;;;;;4.95;2.20;;;;;;;;;;5041737;28;20135;-77
2023/01/07 12:06:08;;;;;;;3.80;2.30;;;;;;;;;;5026891;28;20051;-77
2023/01/07 12:08:35;;;;;;;2.60;2.22;;;;;;;;;;5053371;28;20045;-77
2023/01/07 12:11:08;;;;;;;2.67;2.40;;;;;;;;;;5032674;28;20052;-75
2023/01/07 12:13:35;;;;;;;3.22;2.35;;;;;;;;;;5048806;28;20056;-77
2023/01/07 12:16:02;;;;;;;3.63;2.00;;;;;;;;;;5049060;28;20503;-76
2023/01/07 12:18:48;;;;;;;4.43;2.05;;;;;;;;;;5050344;28;20032;-77
2023/01/07 12:21:17;;;;;;;2.60;1.90;;;;;;;;;;5057733;28;20051;-77
2023/01/07 12:23:43;;;;;;;3.08;2.20;;;;;;;;;;5043736;28;20391;-77
2023/01/07 12:26:09;;;;;;;8.23;3.17;;;;;;;;;;5059135;28;20123;-76
2023/01/07 12:28:54;;;;;;;5.50;2.22;;;;;;;;;;5055184;28;20131;-77
2023/01/07 12:31:29;;;;;;;3.28;2.15;;;;;;;;;;5045204;28;20044;-77
2023/01/07 12:34:02;;;;;;;2.58;1.80;;;;;;;;;;5041384;28;20048;-77
2023/01/07 12:36:37;;;;;;;3.90;1.63;;;;;;;;;;5038823;28;20045;-77
2023/01/07 12:39:05;;;;;;;2.20;2.00;;;;;;;;;;5044923;28;20036;-76
2023/01/07 12:41:33;;;;;;;1.98;1.75;;;;;;;;;;5071189;27;20086;-77
2023/01/07 12:44:05;;;;;;;2.45;1.80;;;;;;;;;;5059639;28;20127;-77
2023/01/07 12:46:40;;;;;;;3.97;1.77;;;;;;;;;;5055863;28;20106;-77
2023/01/07 12:49:24;;;;;;;2.65;1.73;;;;;;;;;;5055161;28;20065;-75
2023/01/07 12:51:55;;;;;;;3.20;2.05;;;;;;;;;;5038843;28;20132;-76
2023/01/07 12:54:27;;;;;;;3.75;1.90;;;;;;;;;;5037289;28;20050;-77
2023/01/07 12:56:54;;;;;;;3.42;2.20;;;;;;;;;;5054635;28;20656;-76
2023/01/07 12:59:42;;;;;;;9.30;1.95;;;;;;;;;;5037365;28;20123;-77
2023/01/07 13:02:17;;;;;;;1.80;1.63;;;;;;;;;;5038231;28;20044;-77
2023/01/07 13:04:43;;;;;;;6.70;2.47;;;;;;;;;;5056099;28;21663;-77
2023/01/07 13:07:09;;;;;;;2.80;1.80;;;;;;;;;;5038101;28;20044;-77
2023/01/07 13:09:38;;;;;;;2.65;2.10;;;;;;;;;;5037119;28;20510;-77
2023/01/07 13:14:57;;;;;;;3.63;1.77;;;;;;;;;;5056312;28;20048;-77
2023/01/07 13:17:25;;;;;;;2.95;1.60;;;;;;;;;;5037579;28;20088;-77
2023/01/07 13:19:51;;;;;;;2.78;1.60;;;;;;;;;;5039720;28;20475;-76
2023/01/07 13:22:30;;;;;;;4.90;1.95;;;;;;;;;;5060365;28;20155;-76
2023/01/07 13:25:03;;;;;;;2.33;1.75;;;;;;;;;;5081297;28;20042;-76
2023/01/07 13:27:35;;;;;;;4.20;2.00;;;;;;;;;;5077025;28;20051;-75
2023/01/07 13:30:01;;;;;;;2.75;2.22;;;;;;;;;;5082588;28;20044;-76
2023/01/07 13:32:33;;;;;;;2.53;1.48;;;;;;;;;;5063330;28;20051;-75
2023/01/07 13:35:02;;;;;;;2.13;1.60;;;;;;;;;;5045769;28;20078;-75
2023/01/07 13:37:41;;;;;;;3.40;1.80;;;;;;;;;;5068320;28;20073;-75
2023/01/07 13:40:13;;;;;;;2.60;1.80;;;;;;;;;;5041800;28;20135;-75
2023/01/07 13:43:02;;;;;;;2.22;1.48;;;;;;;;;;5055720;28;20039;-75
2023/01/07 13:45:31;;;;;;;1.83;1.73;;;;;;;;;;5020223;28;20048;-75
2023/01/07 13:48:02;;;;;;;2.17;1.63;;;;;;;;;;5055163;28;20982;-75
2023/01/07 13:50:31;;;;;;;4.20;2.03;;;;;;;;;;5040084;28;20052;-76
2023/01/07 13:52:58;;;;;;;2.92;1.98;;;;;;;;;;5039069;28;20494;-75
2023/01/07 13:55:31;;;;;;;2.80;1.83;;;;;;;;;;5033880;28;20492;-75
2023/01/07 13:57:57;;;;;;;1.85;1.73;;;;;;;;;;5053313;28;20051;-75
2023/01/07 14:00:50;;;;;;;4.35;1.73;;;;;;;;;;5055855;28;20231;-76
2023/01/07 14:03:38;;;;;;;2.25;1.90;;;;;;;;;;5030443;28;20384;-75
2023/01/07 14:06:20;;;;;;;2.47;2.13;;;;;;;;;;5054989;28;20106;-75
2023/01/07 14:08:52;;;;;;;4.40;2.10;;;;;;;;;;5058328;28;20040;-75
2023/01/07 14:11:34;;;;;;;2.58;2.28;;;;;;;;;;5053203;28;20492;-75
2023/01/07 14:14:19;;;;;;;3.40;2.17;;;;;;;;;;5042381;28;20047;-75
2023/01/07 14:16:55;;;;;;;4.50;2.10;;;;;;;;;;5055458;28;20169;-75
2023/01/07 14:19:40;;;;;;;3.05;2.15;;;;;;;;;;5052126;28;20041;-75
2023/01/07 14:22:06;;;;;;;2.97;2.38;;;;;;;;;;5043006;28;20048;-75
2023/01/07 14:24:44;;;;;;;2.92;2.05;;;;;;;;;;5053200;28;20648;-75
2023/01/07 14:27:29;;;;;;;4.28;2.50;;;;;;;;;;5057318;28;20047;-75
2023/01/07 14:29:56;;;;;;;2.38;2.10;;;;;;;;;;5042516;28;20101;-75
2023/01/07 14:32:25;;;;;;;5.10;2.13;;;;;;;;;;5055811;28;20052;-75
2023/01/07 14:34:58;;;;;;;2.58;2.20;;;;;;;;;;5054609;28;20048;-75
2023/01/07 14:37:29;;;;;;;3.75;2.28;;;;;;;;;;5051148;28;20052;-75
2023/01/07 14:39:55;;;;;;;4.32;2.60;;;;;;;;;;5073129;27;20627;-75
2023/01/07 14:42:42;;;;;;;3.78;2.03;;;;;;;;;;5039614;28;20484;-75